createdAt,value
2022-09-26T00:00:01.213Z,9.60
2022-09-26T00:03:02.900Z,9.60
2022-09-26T00:06:07.316Z,9.40
2022-09-26T00:09:08.991Z,9.50
2022-09-26T00:12:10.641Z,9.30
2022-09-26T00:15:12.245Z,9.40
2022-09-26T00:18:15.947Z,9.20
2022-09-26T00:21:18.125Z,9.30
2022-09-26T00:24:19.820Z,9.10
2022-09-26T00:27:22.242Z,9.00
2022-09-26T00:30:23.906Z,9.00
2022-09-26T00:33:28.545Z,9.00
2022-09-26T00:36:37.898Z,9.40
2022-09-26T00:39:40.281Z,9.10
2022-09-26T00:42:41.858Z,9.10
2022-09-26T00:45:43.587Z,9.10
2022-09-26T00:48:48.871Z,9.10
2022-09-26T00:52:07.570Z,9.10
2022-09-26T00:55:14.021Z,9.10
2022-09-26T00:58:26.642Z,9.00
2022-09-26T01:01:29.334Z,9.10
2022-09-26T01:04:34.549Z,9.00
2022-09-26T01:07:36.333Z,9.10
2022-09-26T01:10:39.025Z,9.10
2022-09-26T01:13:42.008Z,9.10
2022-09-26T01:16:48.075Z,9.00
2022-09-26T01:20:12.861Z,9.00
2022-09-26T01:23:20.294Z,9.00
2022-09-26T01:26:42.986Z,9.10
2022-09-26T01:30:15.218Z,9.00
2022-09-26T01:33:19.536Z,9.00
2022-09-26T01:36:40.017Z,9.00
2022-09-26T01:40:00.616Z,9.00
2022-09-26T01:43:08.348Z,8.90
2022-09-26T01:46:28.144Z,8.90
2022-09-26T01:49:48.313Z,8.90
2022-09-26T01:52:52.955Z,8.90
2022-09-26T01:56:14.540Z,8.90
2022-09-26T01:59:25.947Z,8.90
2022-09-26T02:02:32.982Z,8.90
2022-09-26T02:05:46.672Z,8.80
2022-09-26T02:08:59.933Z,8.90
2022-09-26T02:12:06.929Z,8.80
2022-09-26T02:15:13.304Z,9.00
2022-09-26T02:18:20.784Z,8.80
2022-09-26T02:21:24.050Z,9.20
2022-09-26T02:24:25.942Z,8.80
2022-09-26T02:27:28.123Z,8.80
2022-09-26T02:30:29.879Z,8.80
2022-09-26T02:33:31.633Z,8.70
2022-09-26T02:36:36.836Z,8.70
2022-09-26T02:39:38.506Z,8.70
2022-09-26T02:43:09.525Z,8.70
2022-09-26T02:46:15.026Z,8.80
2022-09-26T02:49:38.726Z,8.80
2022-09-26T02:53:11.214Z,8.80
2022-09-26T02:56:38.954Z,8.90
2022-09-26T02:59:50.158Z,8.90
2022-09-26T03:03:22.502Z,8.90
2022-09-26T03:06:30.997Z,8.90
2022-09-26T03:09:34.202Z,8.80
2022-09-26T03:12:37.833Z,8.90
2022-09-26T03:15:41.962Z,8.80
2022-09-26T03:18:55.466Z,8.80
2022-09-26T03:21:57.488Z,8.90
2022-09-26T03:25:00.559Z,8.90
2022-09-26T03:28:05.632Z,8.90
2022-09-26T03:31:07.416Z,8.90
2022-09-26T03:34:09.021Z,9.00
2022-09-26T03:37:11.278Z,8.90
2022-09-26T03:40:13.460Z,8.90
2022-09-26T03:43:15.141Z,9.00
2022-09-26T03:46:16.828Z,8.90
2022-09-26T03:49:18.563Z,9.00
2022-09-26T03:52:20.517Z,9.00
2022-09-26T03:55:22.107Z,9.10
2022-09-26T03:58:23.737Z,9.00
2022-09-26T04:01:25.420Z,9.10
2022-09-26T04:04:27.061Z,9.00
2022-09-26T04:07:28.677Z,9.00
2022-09-26T04:10:30.271Z,9.10
2022-09-26T04:13:50.783Z,9.10
2022-09-26T04:16:53.353Z,9.00
2022-09-26T04:19:55.031Z,9.10
2022-09-26T04:22:56.670Z,9.30
2022-09-26T04:26:17.512Z,9.00
2022-09-26T04:29:22.226Z,9.10
2022-09-26T04:32:24.818Z,9.20
2022-09-26T04:35:29.477Z,9.20
2022-09-26T04:38:34.123Z,9.10
2022-09-26T04:41:36.684Z,9.10
2022-09-26T04:44:38.290Z,9.10
2022-09-26T04:47:39.889Z,9.10
2022-09-26T04:50:41.500Z,9.10
2022-09-26T04:53:46.466Z,9.20
2022-09-26T04:56:48.054Z,9.70
2022-09-26T04:59:49.685Z,9.10
2022-09-26T05:02:51.313Z,9.20
2022-09-26T05:05:53.028Z,9.00
2022-09-26T05:08:54.978Z,9.20
2022-09-26T05:11:56.652Z,9.20
2022-09-26T05:15:00.618Z,9.30
2022-09-26T05:18:02.302Z,9.20
2022-09-26T05:21:06.492Z,9.20
2022-09-26T05:24:27.140Z,9.30
2022-09-26T05:27:28.766Z,9.20
2022-09-26T05:30:31.251Z,9.20
2022-09-26T05:33:32.902Z,9.30
2022-09-26T05:36:34.875Z,9.20
2022-09-26T05:39:54.973Z,9.40
2022-09-26T05:43:08.125Z,9.60
2022-09-26T05:46:11.785Z,9.40
2022-09-26T05:49:16.409Z,9.30
2022-09-26T05:52:18.057Z,9.30
2022-09-26T05:55:19.646Z,9.40
2022-09-26T05:58:21.256Z,9.40
2022-09-26T06:01:23.060Z,9.40
2022-09-26T06:04:24.720Z,9.50
2022-09-26T06:07:26.314Z,9.40
2022-09-26T06:10:29.704Z,9.40
2022-09-26T06:13:32.168Z,9.50
2022-09-26T06:16:34.131Z,9.40
2022-09-26T06:19:35.817Z,9.50
2022-09-26T06:22:41.976Z,9.60
2022-09-26T06:25:43.684Z,9.60
2022-09-26T06:28:45.298Z,9.60
2022-09-26T06:31:47.045Z,9.70
2022-09-26T06:34:48.933Z,9.60
2022-09-26T06:37:50.565Z,9.70
2022-09-26T06:40:55.214Z,10.00
2022-09-26T06:43:56.884Z,10.10
2022-09-26T06:47:00.927Z,10.20
2022-09-26T06:50:11.564Z,10.50
2022-09-26T06:53:13.184Z,10.80
2022-09-26T06:56:14.911Z,11.00
2022-09-26T06:59:17.205Z,11.00
2022-09-26T07:02:19.609Z,11.20
2022-09-26T07:05:23.253Z,10.90
2022-09-26T07:08:49.969Z,10.90
2022-09-26T07:12:12.817Z,10.80
2022-09-26T07:15:17.027Z,10.90
2022-09-26T07:18:19.792Z,10.90
2022-09-26T07:21:21.608Z,11.40
2022-09-26T07:24:23.218Z,10.90
2022-09-26T07:27:26.775Z,10.90
2022-09-26T07:30:28.497Z,11.00
2022-09-26T07:33:30.271Z,11.40
2022-09-26T07:36:39.062Z,11.30
2022-09-26T07:39:40.760Z,11.20
2022-09-26T07:42:47.777Z,11.30
2022-09-26T07:46:18.779Z,11.40
2022-09-26T07:49:39.296Z,11.70
2022-09-26T07:52:45.782Z,11.40
2022-09-26T07:56:05.700Z,11.70
2022-09-26T07:59:07.404Z,11.90
2022-09-26T08:02:21.555Z,12.30
2022-09-26T08:05:24.867Z,12.20
2022-09-26T08:08:27.093Z,12.40
2022-09-26T08:11:28.776Z,12.10
2022-09-26T08:14:30.952Z,12.10
2022-09-26T08:17:33.738Z,12.40
2022-09-26T08:20:36.785Z,12.70
2022-09-26T08:23:38.399Z,12.80
2022-09-26T08:26:44.090Z,12.50
2022-09-26T08:29:48.420Z,12.80
2022-09-26T08:32:54.384Z,12.90
2022-09-26T08:36:06.489Z,12.90
2022-09-26T08:39:09.357Z,13.20
2022-09-26T08:42:28.542Z,13.40
2022-09-26T08:45:57.968Z,13.50
2022-09-26T08:49:32.021Z,13.50
2022-09-26T08:52:39.901Z,13.40
2022-09-26T08:55:44.406Z,13.70
2022-09-26T08:58:52.197Z,13.80
2022-09-26T09:01:58.604Z,13.60
2022-09-26T09:05:17.080Z,13.60
2022-09-26T09:08:39.596Z,13.50
2022-09-26T09:11:59.948Z,13.40
2022-09-26T09:15:26.564Z,13.10
2022-09-26T09:18:52.729Z,12.90
2022-09-26T09:22:06.449Z,12.90
2022-09-26T09:25:45.500Z,12.90
2022-09-26T09:29:10.332Z,12.70
2022-09-26T09:32:17.273Z,12.90
2022-09-26T09:35:24.518Z,12.90
2022-09-26T09:38:31.812Z,12.80
2022-09-26T09:41:44.530Z,12.90
2022-09-26T09:44:52.710Z,13.30
2022-09-26T09:47:56.471Z,13.40
2022-09-26T09:51:43.265Z,13.60
2022-09-26T09:55:07.016Z,13.70
2022-09-26T09:58:44.635Z,13.90
2022-09-26T10:01:53.920Z,14.00
2022-09-26T10:05:00.067Z,14.00
2022-09-26T10:08:03.160Z,14.30
2022-09-26T10:11:20.245Z,14.20
2022-09-26T10:14:35.143Z,14.20
2022-09-26T10:17:38.934Z,14.30
2022-09-26T10:20:50.112Z,14.20
2022-09-26T10:23:51.923Z,14.10
2022-09-26T10:26:54.388Z,14.20
2022-09-26T10:29:58.909Z,14.10
2022-09-26T10:33:03.977Z,14.40
2022-09-26T10:36:20.875Z,14.30
2022-09-26T10:39:43.622Z,14.50
2022-09-26T10:42:47.150Z,14.50
2022-09-26T10:45:55.868Z,14.50
2022-09-26T10:49:02.096Z,14.50
2022-09-26T10:52:22.760Z,14.60
2022-09-26T10:55:37.583Z,14.60
2022-09-26T10:58:51.964Z,14.50
2022-09-26T11:01:59.361Z,14.60
2022-09-26T11:05:24.188Z,14.80
2022-09-26T11:08:33.909Z,14.70
2022-09-26T11:11:39.818Z,14.70
2022-09-26T11:14:45.760Z,14.90
2022-09-26T11:17:50.432Z,15.20
2022-09-26T11:20:57.867Z,14.90
2022-09-26T11:24:37.351Z,14.90
2022-09-26T11:27:54.989Z,14.60
2022-09-26T11:31:01.588Z,14.50
2022-09-26T11:34:11.419Z,14.30
2022-09-26T11:37:31.196Z,14.30
2022-09-26T11:40:54.909Z,14.30
2022-09-26T11:44:26.163Z,14.50
2022-09-26T11:48:08.024Z,14.40
2022-09-26T11:51:24.624Z,14.40
2022-09-26T11:54:50.324Z,14.50
2022-09-26T11:58:14.173Z,14.50
2022-09-26T12:01:28.324Z,14.50
2022-09-26T12:04:45.230Z,14.50
2022-09-26T12:07:46.821Z,14.40
2022-09-26T12:11:07.468Z,14.40
2022-09-26T12:14:23.800Z,14.60
2022-09-26T12:18:02.629Z,14.50
2022-09-26T12:21:10.311Z,14.50
2022-09-26T12:24:33.587Z,14.60
2022-09-26T12:27:44.732Z,14.70
2022-09-26T12:31:08.658Z,14.70
2022-09-26T12:34:43.624Z,14.60
2022-09-26T12:37:57.153Z,14.50
2022-09-26T12:40:58.815Z,14.50
2022-09-26T12:44:31.221Z,14.50
2022-09-26T12:47:45.444Z,14.30
2022-09-26T12:51:22.272Z,14.50
2022-09-26T12:54:54.826Z,14.10
2022-09-26T12:58:22.305Z,14.10
2022-09-26T13:01:44.897Z,14.00
2022-09-26T13:05:01.031Z,13.90
2022-09-26T13:08:18.400Z,13.80
2022-09-26T13:11:48.093Z,13.70
2022-09-26T13:15:20.305Z,13.70
2022-09-26T13:18:33.253Z,13.70
2022-09-26T13:21:51.594Z,13.70
2022-09-26T13:25:18.866Z,13.80
2022-09-26T13:28:33.740Z,13.80
2022-09-26T13:31:46.138Z,13.80
2022-09-26T13:34:53.947Z,13.90
2022-09-26T13:38:32.356Z,14.20
2022-09-26T13:42:01.394Z,13.80
2022-09-26T13:45:10.827Z,13.70
2022-09-26T13:48:26.314Z,13.70
2022-09-26T13:51:49.212Z,13.60
2022-09-26T13:55:09.645Z,13.60
2022-09-26T13:58:22.927Z,13.60
2022-09-26T14:01:27.393Z,13.60
2022-09-26T14:04:35.995Z,13.60
2022-09-26T14:08:03.819Z,13.40
2022-09-26T14:11:14.699Z,13.40
2022-09-26T14:14:19.298Z,13.40
2022-09-26T14:17:42.822Z,13.80
2022-09-26T14:20:59.820Z,13.20
2022-09-26T14:24:20.196Z,13.20
2022-09-26T14:27:27.916Z,13.30
2022-09-26T14:30:30.444Z,13.20
2022-09-26T14:33:34.088Z,13.10
2022-09-26T14:36:36.409Z,13.20
2022-09-26T14:39:44.576Z,13.40
2022-09-26T14:42:59.654Z,13.10
2022-09-26T14:46:07.958Z,13.00
2022-09-26T14:49:23.637Z,13.00
2022-09-26T14:52:25.649Z,13.00
2022-09-26T14:55:30.107Z,12.90
2022-09-26T14:58:37.784Z,12.90
2022-09-26T15:01:39.920Z,12.90
2022-09-26T15:04:44.689Z,12.90
2022-09-26T15:07:49.816Z,12.90
2022-09-26T15:10:53.751Z,12.90
2022-09-26T15:13:56.513Z,12.80
2022-09-26T15:17:00.961Z,12.80
2022-09-26T15:20:07.497Z,12.80
2022-09-26T15:23:24.254Z,12.80
2022-09-26T15:26:34.731Z,12.80
2022-09-26T15:29:42.102Z,12.70
2022-09-26T15:32:44.452Z,12.70
2022-09-26T15:35:53.843Z,12.70
2022-09-26T15:38:55.722Z,12.70
2022-09-26T15:42:17.484Z,12.60
2022-09-26T15:45:46.154Z,12.60
2022-09-26T15:48:47.852Z,12.60
2022-09-26T15:51:53.537Z,12.60
2022-09-26T15:54:55.500Z,12.50
2022-09-26T15:58:00.906Z,12.50
2022-09-26T16:01:03.076Z,12.50
2022-09-26T16:04:38.757Z,12.40
2022-09-26T16:07:47.560Z,12.40
2022-09-26T16:11:00.615Z,12.40
2022-09-26T16:14:02.446Z,12.40
2022-09-26T16:17:24.168Z,12.30
2022-09-26T16:20:32.221Z,12.30
2022-09-26T16:23:54.641Z,12.30
2022-09-26T16:26:56.641Z,12.30
2022-09-26T16:30:02.587Z,12.30
2022-09-26T16:33:07.366Z,12.30
2022-09-26T16:36:23.553Z,12.20
2022-09-26T16:39:28.432Z,12.20
2022-09-26T16:42:32.708Z,12.20
2022-09-26T16:45:34.377Z,12.20
2022-09-26T16:48:49.526Z,12.10
2022-09-26T16:52:31.016Z,12.10
2022-09-26T16:55:36.037Z,12.10
2022-09-26T16:58:37.745Z,12.00
2022-09-26T17:01:54.621Z,12.00
2022-09-26T17:04:56.470Z,12.00
2022-09-26T17:07:58.100Z,11.90
2022-09-26T17:11:13.376Z,11.90
2022-09-26T17:14:24.971Z,11.90
2022-09-26T17:17:27.087Z,11.90
2022-09-26T17:20:29.086Z,11.90
2022-09-26T17:23:42.419Z,11.90
2022-09-26T17:26:50.582Z,11.80
2022-09-26T17:29:54.946Z,11.80
2022-09-26T17:32:58.858Z,11.80
2022-09-26T17:36:00.854Z,11.80
2022-09-26T17:39:02.688Z,11.80
2022-09-26T17:42:04.462Z,11.80
2022-09-26T17:45:06.934Z,11.80
2022-09-26T17:48:24.258Z,11.80
2022-09-26T17:51:25.961Z,11.80
2022-09-26T17:54:31.256Z,11.80
2022-09-26T17:57:38.225Z,11.80
2022-09-26T18:00:44.795Z,11.80
2022-09-26T18:03:46.577Z,11.90
2022-09-26T18:06:48.253Z,11.80
2022-09-26T18:09:52.352Z,11.80
2022-09-26T18:12:58.304Z,11.80
2022-09-26T18:16:00.856Z,11.80
2022-09-26T18:19:16.684Z,11.70
2022-09-26T18:22:27.122Z,11.70
2022-09-26T18:25:28.847Z,11.80
2022-09-26T18:28:30.738Z,11.80
2022-09-26T18:31:36.419Z,11.80
2022-09-26T18:34:38.195Z,11.80
2022-09-26T18:37:39.844Z,11.70
2022-09-26T18:40:50.352Z,11.70
2022-09-26T18:43:55.578Z,11.70
2022-09-26T18:47:01.729Z,11.70
2022-09-26T18:50:05.015Z,11.70
2022-09-26T18:53:14.418Z,11.70
2022-09-26T18:56:34.496Z,11.70
2022-09-26T18:59:36.128Z,11.70
2022-09-26T19:02:39.196Z,11.70
2022-09-26T19:05:41.467Z,11.70
2022-09-26T19:08:45.759Z,11.70
2022-09-26T19:11:47.646Z,11.70
2022-09-26T19:14:49.322Z,11.60
2022-09-26T19:17:52.173Z,11.60
2022-09-26T19:20:54.404Z,11.60
2022-09-26T19:24:00.223Z,11.60
2022-09-26T19:27:06.842Z,11.60
2022-09-26T19:30:15.669Z,11.60
2022-09-26T19:33:17.404Z,11.50
2022-09-26T19:36:19.939Z,11.50
2022-09-26T19:39:21.616Z,11.50
2022-09-26T19:42:23.768Z,11.50
2022-09-26T19:45:26.602Z,11.40
2022-09-26T19:48:29.380Z,11.30
2022-09-26T19:51:32.465Z,11.20
2022-09-26T19:54:35.132Z,11.20
2022-09-26T19:57:36.765Z,11.20
2022-09-26T20:00:41.509Z,11.20
2022-09-26T20:03:44.752Z,11.30
2022-09-26T20:06:49.779Z,11.20
2022-09-26T20:09:52.361Z,11.20
2022-09-26T20:12:54.030Z,11.20
2022-09-26T20:15:56.364Z,11.20
2022-09-26T20:18:58.250Z,11.20
2022-09-26T20:22:02.444Z,11.10
2022-09-26T20:25:04.976Z,11.10
2022-09-26T20:28:06.609Z,11.10
2022-09-26T20:31:54.225Z,11.10
2022-09-26T20:35:00.425Z,11.00
2022-09-26T20:38:14.718Z,11.10
2022-09-26T20:41:25.522Z,11.00
2022-09-26T20:44:29.779Z,11.00
2022-09-26T20:47:31.627Z,11.10
2022-09-26T20:50:38.449Z,11.10
2022-09-26T20:53:40.711Z,11.10
2022-09-26T20:56:42.368Z,11.10
2022-09-26T20:59:44.061Z,11.00
2022-09-26T21:02:52.265Z,11.00
2022-09-26T21:05:54.040Z,11.00
2022-09-26T21:08:55.827Z,11.00
2022-09-26T21:11:57.455Z,11.00
2022-09-26T21:14:59.094Z,11.00
2022-09-26T21:18:01.867Z,11.00
2022-09-26T21:21:06.662Z,11.00
2022-09-26T21:24:15.043Z,11.00
2022-09-26T21:27:16.833Z,11.00
2022-09-26T21:30:18.536Z,11.00
2022-09-26T21:33:21.842Z,11.00
2022-09-26T21:36:24.957Z,11.00
2022-09-26T21:39:28.147Z,10.90
2022-09-26T21:42:29.865Z,10.90
2022-09-26T21:45:31.573Z,10.90
2022-09-26T21:48:33.833Z,10.90
2022-09-26T21:51:36.238Z,10.90
2022-09-26T21:54:42.996Z,10.80
2022-09-26T21:57:46.937Z,10.80
2022-09-26T22:00:48.740Z,10.80
2022-09-26T22:03:50.425Z,10.80
2022-09-26T22:06:52.081Z,10.80
2022-09-26T22:09:53.762Z,10.80
2022-09-26T22:12:55.608Z,10.80
2022-09-26T22:16:07.034Z,10.70
2022-09-26T22:19:08.847Z,10.70
2022-09-26T22:22:10.881Z,10.60
2022-09-26T22:25:12.602Z,10.60
2022-09-26T22:28:14.232Z,10.60
2022-09-26T22:31:16.454Z,10.60
2022-09-26T22:34:18.555Z,10.50
2022-09-26T22:37:20.207Z,10.50
2022-09-26T22:40:21.882Z,10.50
2022-09-26T22:43:24.129Z,10.40
2022-09-26T22:46:27.344Z,10.40
2022-09-26T22:49:29.155Z,10.40
2022-09-26T22:52:30.820Z,10.40
2022-09-26T22:55:32.548Z,10.30
2022-09-26T22:58:38.420Z,10.30
2022-09-26T23:01:40.367Z,10.20
2022-09-26T23:04:48.151Z,10.20
2022-09-26T23:07:53.562Z,10.20
2022-09-26T23:10:56.492Z,10.10
2022-09-26T23:13:58.176Z,10.10
2022-09-26T23:16:59.899Z,10.00
2022-09-26T23:20:01.809Z,10.00
2022-09-26T23:23:03.433Z,10.00
2022-09-26T23:26:07.074Z,10.00
2022-09-26T23:29:09.119Z,10.00
2022-09-26T23:32:10.761Z,10.00
2022-09-26T23:35:12.492Z,10.00
2022-09-26T23:38:14.152Z,9.90
2022-09-26T23:41:16.095Z,9.90
2022-09-26T23:44:17.726Z,9.90
2022-09-26T23:47:19.370Z,9.90
2022-09-26T23:50:21.347Z,9.90
2022-09-26T23:53:23.013Z,9.90
2022-09-26T23:56:24.773Z,9.90
2022-09-26T23:59:26.511Z,9.90
